Time;durP1;ratioP1;P1;durP2;ratioP2;P2;SDS_P1;SDS_P2;PMS_P1;PMS_P2;Temp;Humidity;BMP_temperature;BMP_pressure;BME280_temperature;BME280_humidity;BME280_pressure;Samples;Min_cycle;Max_cycle;Signal;HPM_P1;HPM_P2
2021/05/15 00:02:24;;;;;;;1.07;0.93;;;;;;;11.04;85.27;97566.09;5094679;28;20211;-73
2021/05/15 00:04:51;;;;;;;0.90;0.73;;;;;;;11.05;85.66;97562.50;5094808;28;20230;-73
2021/05/15 00:07:17;;;;;;;1.67;0.80;;;;;;;11.02;85.63;97563.56;5093111;28;20208;-73
2021/05/15 00:09:43;;;;;;;1.17;0.90;;;;;;;11.00;86.41;97564.69;5094754;28;20214;-73
2021/05/15 00:12:09;;;;;;;0.70;0.70;;;;;;;10.96;86.43;97566.72;5094379;28;20210;-73
2021/05/15 00:14:36;;;;;;;1.00;0.97;;;;;;;10.89;86.15;97557.59;5094651;28;20229;-73
2021/05/15 00:17:02;;;;;;;1.20;1.10;;;;;;;10.77;87.00;97563.84;5094312;28;20210;-73
2021/05/15 00:19:29;;;;;;;0.90;0.90;;;;;;;10.67;88.05;97562.91;5094312;28;20204;-73
2021/05/15 00:21:56;;;;;;;0.70;0.70;;;;;;;10.56;88.65;97569.97;5094501;28;20214;-73
2021/05/15 00:24:22;;;;;;;0.70;0.70;;;;;;;10.44;89.83;97570.91;5094425;28;20214;-74
2021/05/15 00:26:48;;;;;;;0.80;0.80;;;;;;;10.32;90.73;97556.03;5094078;28;20212;-73
2021/05/15 00:29:14;;;;;;;0.90;0.90;;;;;;;10.21;91.24;97554.22;5094291;28;20211;-74
2021/05/15 00:31:40;;;;;;;0.80;0.80;;;;;;;10.11;91.93;97552.41;5094213;28;20682;-74
2021/05/15 00:34:06;;;;;;;0.80;0.70;;;;;;;10.05;92.11;97555.50;5092451;28;20230;-74
2021/05/15 00:36:32;;;;;;;1.07;0.97;;;;;;;10.03;92.73;97562.69;5094084;28;20297;-76
2021/05/15 00:38:59;;;;;;;0.80;0.70;;;;;;;9.94;93.27;97555.44;5094328;28;20766;-76
2021/05/15 00:41:25;;;;;;;2.10;0.80;;;;;;;9.95;92.90;97557.97;5094346;28;20266;-77
2021/05/15 00:44:13;;;;;;;1.00;0.90;;;;;;;9.90;93.28;97554.00;5094106;28;20241;-79
2021/05/15 00:46:39;;;;;;;0.80;0.80;;;;;;;9.82;93.50;97548.44;5094051;28;20213;-78
2021/05/15 00:49:06;;;;;;;0.80;0.80;;;;;;;9.74;94.51;97549.00;5093579;28;20210;-78
2021/05/15 00:51:33;;;;;;;1.53;0.87;;;;;;;9.66;95.71;97546.13;5093663;28;20213;-79
2021/05/15 00:54:00;;;;;;;0.80;0.80;;;;;;;9.63;96.14;97546.34;5093474;28;20277;-78
2021/05/15 00:56:28;;;;;;;1.83;0.80;;;;;;;9.55;97.11;97543.44;5093696;28;20218;-78
2021/05/15 00:58:55;;;;;;;1.33;1.23;;;;;;;9.50;97.28;97544.75;5092063;28;20209;-78
2021/05/15 01:01:21;;;;;;;1.10;0.80;;;;;;;9.34;98.69;97538.91;5093814;28;20214;-79
2021/05/15 01:03:47;;;;;;;0.97;0.90;;;;;;;9.28;98.49;97545.47;5093907;28;20210;-79
2021/05/15 01:06:13;;;;;;;1.10;1.00;;;;;;;9.21;98.78;97543.38;5093283;28;20732;-78
2021/05/15 01:08:42;;;;;;;1.10;0.90;;;;;;;9.17;98.99;97542.78;5093713;28;20281;-78
2021/05/15 01:11:09;;;;;;;0.90;0.80;;;;;;;9.08;99.21;97542.59;5093386;28;20210;-79
2021/05/15 01:13:35;;;;;;;1.20;0.87;;;;;;;8.98;99.72;97546.84;5093643;28;20242;-78
2021/05/15 01:16:02;;;;;;;0.90;0.80;;;;;;;8.88;100.00;97548.47;5093152;28;20213;-78
2021/05/15 01:18:28;;;;;;;2.60;1.17;;;;;;;8.81;100.00;97539.34;5093605;28;20214;-77
2021/05/15 01:20:59;;;;;;;0.70;0.70;;;;;;;8.75;100.00;97537.13;5093909;28;20209;-76
2021/05/15 01:23:25;;;;;;;0.77;0.77;;;;;;;8.69;100.00;97540.22;5101394;28;20209;-76
2021/05/15 01:25:50;;;;;;;1.00;0.90;;;;;;;8.65;100.00;97544.84;5091846;28;20278;-79
2021/05/15 01:28:17;;;;;;;0.97;0.90;;;;;;;8.54;100.00;97547.41;5093432;28;20289;-76
2021/05/15 01:30:43;;;;;;;1.10;0.90;;;;;;;8.58;100.00;97542.75;5093285;28;20214;-79
2021/05/15 01:33:09;;;;;;;1.43;1.10;;;;;;;8.58;100.00;97542.75;5093013;28;20243;-78
2021/05/15 01:35:35;;;;;;;1.17;1.00;;;;;;;8.63;100.00;97538.81;5093147;28;20304;-79
2021/05/15 01:38:02;;;;;;;0.80;0.80;;;;;;;8.70;99.79;97537.44;5093168;28;20234;-76
2021/05/15 01:40:28;;;;;;;1.10;0.90;;;;;;;8.72;99.87;97534.69;5093467;28;20346;-76
2021/05/15 01:42:54;;;;;;;0.70;0.70;;;;;;;8.81;99.86;97534.06;5093296;28;20216;-80
2021/05/15 01:45:20;;;;;;;1.13;0.70;;;;;;;8.94;98.38;97532.22;5093245;28;20206;-80
2021/05/15 01:47:46;;;;;;;0.80;0.80;;;;;;;9.00;97.54;97524.69;5095234;28;20259;-80
2021/05/15 01:50:14;;;;;;;0.93;0.77;;;;;;;9.02;97.45;97532.50;5096747;28;20207;-80
2021/05/15 01:52:40;;;;;;;1.27;1.13;;;;;;;9.04;96.74;97533.22;5096048;28;20758;-80
2021/05/15 01:55:15;;;;;;;1.70;0.90;;;;;;;9.06;96.55;97528.72;5097254;28;20246;-77
2021/05/15 01:57:41;;;;;;;0.80;0.80;;;;;;;9.01;97.08;97542.19;5096974;28;20239;-76
2021/05/15 02:00:08;;;;;;;0.90;0.90;;;;;;;9.07;96.86;97533.03;5097220;28;20212;-76
2021/05/15 02:02:34;;;;;;;1.20;1.00;;;;;;;9.07;96.15;97525.94;5097283;28;20218;-75
2021/05/15 02:05:00;;;;;;;0.70;0.70;;;;;;;9.06;96.64;97533.97;5096749;28;20280;-76
2021/05/15 02:07:26;;;;;;;1.00;0.90;;;;;;;8.99;96.99;97528.28;5097156;28;20413;-78
2021/05/15 02:09:52;;;;;;;1.00;0.90;;;;;;;8.98;97.59;97529.25;5097216;28;20645;-76
2021/05/15 02:12:19;;;;;;;1.03;0.87;;;;;;;9.04;97.36;97525.31;5096962;28;20212;-76
2021/05/15 02:14:45;;;;;;;1.53;0.90;;;;;;;9.17;96.44;97531.41;5096827;28;20581;-76
2021/05/15 02:17:11;;;;;;;1.30;1.20;;;;;;;9.28;96.20;97528.81;5095307;28;20216;-75
2021/05/15 02:19:37;;;;;;;1.00;0.90;;;;;;;9.30;95.50;97516.38;5096801;28;20217;-76
2021/05/15 02:22:03;;;;;;;1.10;1.00;;;;;;;9.29;96.12;97514.66;5096569;28;20214;-79
2021/05/15 02:24:29;;;;;;;1.40;1.23;;;;;;;9.26;95.78;97504.34;5096389;28;20214;-76
2021/05/15 02:26:55;;;;;;;0.83;0.70;;;;;;;9.17;96.47;97512.97;5096701;28;20211;-76
2021/05/15 02:29:21;;;;;;;0.83;0.83;;;;;;;9.12;96.47;97517.72;5096417;28;20226;-81
2021/05/15 02:31:47;;;;;;;1.17;0.90;;;;;;;9.03;97.38;97518.38;5096633;28;20297;-79
2021/05/15 02:34:14;;;;;;;1.10;1.00;;;;;;;9.01;97.09;97504.47;5096159;28;20708;-76
2021/05/15 02:36:40;;;;;;;1.13;0.90;;;;;;;9.04;97.73;97504.22;5096485;28;20214;-76
2021/05/15 02:39:06;;;;;;;0.83;0.83;;;;;;;9.05;97.44;97509.41;5096447;28;20210;-76
2021/05/15 02:41:32;;;;;;;1.27;1.10;;;;;;;9.02;97.82;97500.88;5096255;28;20249;-76
2021/05/15 02:43:58;;;;;;;2.23;1.10;;;;;;;8.94;97.91;97495.34;5094348;28;20213;-78
2021/05/15 02:46:25;;;;;;;1.10;1.00;;;;;;;8.83;99.59;97488.22;5096362;28;20276;-77
2021/05/15 02:48:50;;;;;;;1.23;0.90;;;;;;;8.78;99.82;97492.13;5096267;28;20206;-78
2021/05/15 02:51:16;;;;;;;1.10;1.00;;;;;;;8.73;99.62;97488.97;5096188;28;20263;-77
2021/05/15 02:53:42;;;;;;;0.93;0.83;;;;;;;8.62;100.00;97486.28;5096019;28;20321;-77
2021/05/15 02:56:08;;;;;;;1.33;0.90;;;;;;;8.60;100.00;97488.16;5096188;28;20214;-78
2021/05/15 02:58:34;;;;;;;1.17;0.80;;;;;;;8.53;100.00;97492.19;5096326;28;20308;-78
2021/05/15 03:01:00;;;;;;;1.30;1.20;;;;;;;8.47;100.00;97487.34;5095822;28;20247;-77
2021/05/15 03:03:27;;;;;;;2.37;0.87;;;;;;;8.49;100.00;97490.72;5096016;28;20237;-78
2021/05/15 03:05:53;;;;;;;1.50;0.97;;;;;;;8.46;100.00;97485.69;5095655;28;20583;-79
2021/05/15 03:08:19;;;;;;;1.70;1.00;;;;;;;8.44;100.00;97482.31;5095673;28;20214;-77
2021/05/15 03:10:45;;;;;;;2.03;0.90;;;;;;;8.44;100.00;97482.31;5095019;28;20207;-77
2021/05/15 03:13:11;;;;;;;1.53;1.00;;;;;;;8.38;100.00;97480.94;5095454;28;20586;-79
2021/05/15 03:15:38;;;;;;;0.80;0.80;;;;;;;8.40;100.00;97476.41;5095764;28;20246;-77
2021/05/15 03:18:04;;;;;;;2.43;1.20;;;;;;;8.35;100.00;97485.59;5095460;28;20221;-70
2021/05/15 03:20:31;;;;;;;1.20;1.10;;;;;;;8.33;100.00;97490.13;5095492;28;20283;-69
2021/05/15 03:22:57;;;;;;;1.63;1.00;;;;;;;8.27;100.00;97480.03;5095509;28;20214;-69
2021/05/15 03:25:23;;;;;;;2.13;0.90;;;;;;;8.32;100.00;97488.44;5095804;28;20695;-69
2021/05/15 03:27:49;;;;;;;1.27;0.93;;;;;;;8.37;100.00;97488.94;5095412;28;20257;-69
2021/05/15 03:30:17;;;;;;;2.60;1.10;;;;;;;8.38;100.00;97493.28;5095498;28;20210;-69
2021/05/15 03:32:44;;;;;;;0.70;0.70;;;;;;;8.37;100.00;97492.44;5095077;28;20229;-70
2021/05/15 03:35:11;;;;;;;0.87;0.87;;;;;;;8.31;100.00;97487.59;5093731;28;20207;-71
2021/05/15 03:37:39;;;;;;;1.77;1.00;;;;;;;8.29;100.00;97486.03;5095182;28;20214;-71
2021/05/15 03:40:07;;;;;;;1.23;1.10;;;;;;;8.31;100.00;97494.66;5095454;28;20211;-71
2021/05/15 03:42:33;;;;;;;1.53;1.30;;;;;;;8.47;100.00;97487.34;5095155;28;20209;-72
2021/05/15 03:44:59;;;;;;;1.00;0.93;;;;;;;8.55;100.00;97487.66;5095357;28;20619;-72
2021/05/15 03:47:25;;;;;;;1.00;1.00;;;;;;;8.61;100.00;97495.09;5095214;28;20206;-71
2021/05/15 03:49:51;;;;;;;1.70;1.13;;;;;;;8.70;100.00;97500.56;5095045;28;20584;-71
2021/05/15 03:52:17;;;;;;;2.30;1.00;;;;;;;8.66;100.00;97485.09;5095203;28;20221;-71
2021/05/15 03:54:44;;;;;;;1.90;1.10;;;;;;;8.68;100.00;97491.06;5095055;28;20232;-73
2021/05/15 03:57:10;;;;;;;1.27;1.00;;;;;;;8.74;100.00;97488.00;5095005;28;20213;-73
2021/05/15 03:59:37;;;;;;;1.67;1.00;;;;;;;8.81;100.00;97487.47;5094990;28;20214;-72
2021/05/15 04:02:03;;;;;;;1.10;1.00;;;;;;;8.94;100.00;97492.69;5093281;28;20217;-72
2021/05/15 04:04:29;;;;;;;1.43;1.00;;;;;;;9.03;100.00;97497.28;5094566;28;20218;-76
2021/05/15 04:06:55;;;;;;;1.20;1.10;;;;;;;9.12;100.00;97494.00;5094905;28;20213;-76
2021/05/15 04:09:21;;;;;;;2.77;1.23;;;;;;;9.28;99.71;97489.25;5094530;28;20209;-74
2021/05/15 04:11:48;;;;;;;2.23;1.00;;;;;;;9.40;99.27;97489.19;5094233;28;20272;-74
2021/05/15 04:14:29;;;;;;;1.27;0.90;;;;;;;9.55;97.80;97487.22;5094767;28;20237;-74
2021/05/15 04:17:17;;;;;;;1.17;1.07;;;;;;;9.77;95.91;97485.47;5094670;28;20639;-74
2021/05/15 04:19:43;;;;;;;2.33;0.87;;;;;;;9.94;94.46;97492.09;5094336;28;20803;-74
2021/05/15 04:22:09;;;;;;;1.03;0.93;;;;;;;10.07;93.03;97482.28;5094349;28;20211;-72
2021/05/15 04:24:35;;;;;;;1.20;0.87;;;;;;;10.08;93.29;97484.81;5094285;28;20263;-74
2021/05/15 04:27:05;;;;;;;2.30;0.80;;;;;;;10.07;93.49;97484.94;5092957;28;20214;-74
2021/05/15 04:29:31;;;;;;;1.20;0.80;;;;;;;10.09;93.03;97494.41;5094540;28;20436;-74
2021/05/15 04:31:58;;;;;;;0.93;0.93;;;;;;;10.16;93.04;97484.25;5094261;28;20216;-74
2021/05/15 04:34:25;;;;;;;1.30;0.90;;;;;;;10.24;92.56;97484.47;5094162;28;20232;-74
2021/05/15 04:36:51;;;;;;;0.90;0.90;;;;;;;10.31;92.36;97481.25;5094036;28;20208;-73
2021/05/15 04:39:18;;;;;;;1.87;0.87;;;;;;;10.33;92.14;97478.50;5094254;28;20206;-72
2021/05/15 04:41:44;;;;;;;0.87;0.87;;;;;;;10.31;92.47;97475.97;5094610;28;20576;-72
2021/05/15 04:44:11;;;;;;;1.23;0.97;;;;;;;10.32;93.07;97476.78;5099591;28;20239;-73
2021/05/15 04:46:37;;;;;;;1.40;1.07;;;;;;;10.37;92.90;97474.63;5095415;28;20211;-71
2021/05/15 04:49:03;;;;;;;1.60;1.20;;;;;;;10.46;92.45;97479.19;5093875;28;20204;-71
2021/05/15 04:51:29;;;;;;;1.50;0.90;;;;;;;10.56;91.93;97485.41;5093599;28;20213;-71
2021/05/15 04:53:55;;;;;;;1.50;1.00;;;;;;;10.71;91.08;97485.03;5091826;28;20284;-72
2021/05/15 04:56:21;;;;;;;1.10;1.00;;;;;;;10.87;90.53;97489.94;5093542;28;20672;-72
2021/05/15 04:58:47;;;;;;;0.80;0.80;;;;;;;11.05;88.72;97483.16;5093873;28;20304;-72
2021/05/15 05:01:14;;;;;;;0.80;0.80;;;;;;;11.18;86.50;97489.16;5093946;28;20210;-72
2021/05/15 05:03:40;;;;;;;1.00;0.90;;;;;;;11.22;85.64;97490.56;5093832;28;20218;-74
2021/05/15 05:06:06;;;;;;;0.77;0.70;;;;;;;11.24;86.03;97488.63;5093593;28;20767;-74
2021/05/15 05:08:32;;;;;;;1.33;0.73;;;;;;;11.27;85.23;97483.09;5093381;28;20221;-73
2021/05/15 05:10:58;;;;;;;1.00;0.90;;;;;;;11.36;84.67;97485.81;5093636;28;20242;-73
2021/05/15 05:13:24;;;;;;;1.00;0.90;;;;;;;11.45;84.50;97482.44;5093474;28;20238;-73
2021/05/15 05:15:50;;;;;;;0.93;0.80;;;;;;;11.59;83.87;97484.81;5093576;28;20297;-73
2021/05/15 05:18:17;;;;;;;1.27;0.90;;;;;;;11.82;82.92;97491.66;5093611;28;20210;-73
2021/05/15 05:20:43;;;;;;;0.80;0.80;;;;;;;12.34;81.68;97490.72;5091817;28;20227;-76
2021/05/15 05:23:09;;;;;;;0.80;0.70;;;;;;;13.02;78.45;97490.84;5092469;28;20253;-76
2021/05/15 05:25:35;;;;;;;0.90;0.90;;;;;;;13.12;77.26;97486.38;5093740;28;20322;-74
2021/05/15 05:28:01;;;;;;;2.63;1.10;;;;;;;12.99;77.93;97491.94;5093372;28;20298;-74
2021/05/15 05:30:27;;;;;;;1.50;0.70;;;;;;;12.85;77.41;97480.84;5093361;28;20300;-75
2021/05/15 05:32:54;;;;;;;1.23;1.00;;;;;;;12.65;77.69;97479.94;5093368;28;20234;-75
2021/05/15 05:35:21;;;;;;;0.90;0.80;;;;;;;12.53;77.25;97477.53;5093383;28;20213;-72
2021/05/15 05:37:48;;;;;;;1.40;0.80;;;;;;;12.46;77.78;97471.94;5093353;28;20233;-72
2021/05/15 05:40:15;;;;;;;1.87;0.90;;;;;;;12.61;77.61;97461.78;5092963;28;20695;-71
2021/05/15 05:42:42;;;;;;;0.93;0.70;;;;;;;12.78;76.67;97459.31;5093227;28;20248;-72
2021/05/15 05:45:11;;;;;;;0.90;0.70;;;;;;;12.90;75.53;97470.69;5091416;28;20301;-72
2021/05/15 05:47:37;;;;;;;1.60;0.80;;;;;;;12.96;75.78;97468.34;5092935;28;20213;-72
2021/05/15 05:50:05;;;;;;;1.10;0.70;;;;;;;12.88;75.69;97467.31;5092839;28;20689;-72
2021/05/15 05:52:32;;;;;;;0.77;0.70;;;;;;;12.89;75.62;97469.81;5092842;28;20253;-72
2021/05/15 05:54:58;;;;;;;0.80;0.70;;;;;;;12.96;75.32;97470.16;5092817;28;20690;-72
2021/05/15 05:57:24;;;;;;;1.03;0.73;;;;;;;12.92;75.81;97469.56;5092776;28;20208;-72
2021/05/15 05:59:50;;;;;;;0.90;0.60;;;;;;;12.90;75.86;97470.69;5093119;28;20259;-72
2021/05/15 06:02:16;;;;;;;0.70;0.70;;;;;;;13.45;73.50;97470.09;5093142;28;20656;-72
2021/05/15 06:04:42;;;;;;;0.80;0.70;;;;;;;14.61;69.81;97466.06;5093031;28;20245;-75
2021/05/15 06:07:08;;;;;;;1.67;0.70;;;;;;;15.18;65.71;97460.44;5093099;28;20305;-75
2021/05/15 06:09:35;;;;;;;1.00;0.80;;;;;;;15.07;66.23;97460.66;5093025;28;20229;-75
2021/05/15 06:12:01;;;;;;;1.17;0.77;;;;;;;15.14;66.41;97463.53;5091446;28;20222;-75
2021/05/15 06:14:27;;;;;;;0.80;0.60;;;;;;;15.87;64.32;97457.91;5092624;28;20274;-75
2021/05/15 06:16:53;;;;;;;1.57;0.63;;;;;;;17.04;58.94;97449.94;5092887;28;20261;-75
2021/05/15 06:19:19;;;;;;;0.80;0.70;;;;;;;17.00;59.23;97451.25;5092936;28;20236;-75
2021/05/15 06:21:45;;;;;;;1.50;0.70;;;;;;;16.33;60.51;97450.44;5092741;28;20667;-71
2021/05/15 06:24:12;;;;;;;0.70;0.70;;;;;;;15.87;60.98;97449.94;5092860;28;20579;-71
2021/05/15 06:26:39;;;;;;;3.67;0.60;;;;;;;15.90;61.64;97452.28;5092641;28;20204;-74
2021/05/15 06:29:05;;;;;;;0.60;0.60;;;;;;;16.63;59.85;97450.78;5092985;28;20594;-74
2021/05/15 06:31:31;;;;;;;0.87;0.63;;;;;;;17.85;55.24;97442.94;5092866;28;20228;-74
2021/05/15 06:33:57;;;;;;;2.10;0.80;;;;;;;18.74;51.59;97447.97;5094910;28;20236;-74
2021/05/15 06:36:24;;;;;;;0.93;0.50;;;;;;;19.45;49.64;97437.91;5096495;28;20210;-74
2021/05/15 06:38:49;;;;;;;0.70;0.60;;;;;;;19.88;48.56;97444.47;5094527;28;20717;-74
2021/05/15 06:41:15;;;;;;;0.60;0.60;;;;;;;19.57;48.37;97441.03;5096489;28;20301;-75
2021/05/15 06:43:42;;;;;;;1.60;0.60;;;;;;;19.37;48.73;97435.28;5096273;28;20217;-74
2021/05/15 06:46:08;;;;;;;0.77;0.60;;;;;;;19.09;49.09;97436.72;5096091;28;20676;-74
2021/05/15 06:48:34;;;;;;;0.60;0.50;;;;;;;18.72;50.24;97444.59;5096146;28;20672;-74
2021/05/15 06:51:00;;;;;;;0.87;0.50;;;;;;;17.79;52.77;97439.06;5095982;28;20216;-74
2021/05/15 06:53:26;;;;;;;1.43;0.63;;;;;;;16.84;56.07;97443.22;5096140;28;20265;-74
2021/05/15 06:55:52;;;;;;;0.50;0.50;;;;;;;16.57;58.40;97438.09;5095814;28;20216;-74
2021/05/15 06:58:18;;;;;;;1.43;0.60;;;;;;;16.76;58.79;97445.84;5095808;28;20210;-74
2021/05/15 07:00:45;;;;;;;0.60;0.60;;;;;;;17.16;57.44;97445.97;5096008;28;20236;-74
2021/05/15 07:03:11;;;;;;;0.80;0.47;;;;;;;17.56;56.83;97443.41;5094268;28;20214;-75
2021/05/15 07:05:37;;;;;;;1.23;0.57;;;;;;;17.87;54.70;97440.91;5095968;28;20253;-74
2021/05/15 07:08:04;;;;;;;0.60;0.50;;;;;;;18.08;52.94;97426.03;5096030;28;20217;-74
2021/05/15 07:10:30;;;;;;;1.00;0.70;;;;;;;18.18;53.17;97434.72;5095862;28;20299;-74
2021/05/15 07:12:56;;;;;;;1.30;0.63;;;;;;;18.05;53.89;97431.69;5095692;28;20210;-74
2021/05/15 07:15:22;;;;;;;0.60;0.50;;;;;;;17.59;53.23;97435.06;5094736;28;20223;-74
2021/05/15 07:17:49;;;;;;;2.33;0.70;;;;;;;17.26;55.42;97433.28;5094319;28;20222;-74
2021/05/15 07:20:16;;;;;;;0.60;0.50;;;;;;;16.66;55.44;97434.47;5095301;28;20202;-74
2021/05/15 07:22:42;;;;;;;1.90;0.80;;;;;;;16.14;57.00;97432.81;5094957;28;20266;-73
2021/05/15 07:25:10;;;;;;;0.50;0.50;;;;;;;15.81;58.82;97430.06;5094387;28;20214;-75
2021/05/15 07:27:36;;;;;;;1.10;0.60;;;;;;;15.68;58.85;97436.78;5094499;28;20214;-75
2021/05/15 07:30:05;;;;;;;0.70;0.67;;;;;;;15.61;59.45;97427.75;5089736;28;20216;-78
2021/05/15 07:32:31;;;;;;;0.50;0.47;;;;;;;15.66;61.59;97425.47;5093890;28;20213;-78
2021/05/15 07:34:58;;;;;;;0.73;0.60;;;;;;;15.77;61.76;97426.03;5094156;28;20241;-76
2021/05/15 07:37:25;;;;;;;1.10;0.73;;;;;;;15.81;60.35;97426.56;5095047;28;20212;-77
2021/05/15 07:39:51;;;;;;;0.73;0.60;;;;;;;15.95;61.18;97431.34;5094534;28;20210;-76
2021/05/15 07:42:17;;;;;;;0.60;0.60;;;;;;;16.02;60.97;97417.22;5094841;28;20425;-75
2021/05/15 07:44:43;;;;;;;0.90;0.70;;;;;;;15.90;59.78;97420.31;5093935;28;20607;-75
2021/05/15 07:47:09;;;;;;;2.37;0.70;;;;;;;15.67;59.49;97424.47;5095004;28;20212;-75
2021/05/15 07:49:35;;;;;;;1.83;0.70;;;;;;;15.56;60.16;97422.03;5095652;28;20205;-75
2021/05/15 07:52:02;;;;;;;0.70;0.70;;;;;;;15.81;59.24;97415.91;5096176;28;20216;-75
2021/05/15 07:54:28;;;;;;;1.47;0.70;;;;;;;16.25;58.77;97415.69;5096344;28;20323;-75
2021/05/15 07:56:54;;;;;;;1.03;0.60;;;;;;;16.64;56.77;97419.63;5094569;28;20284;-76
2021/05/15 07:59:21;;;;;;;0.60;0.50;;;;;;;16.95;55.90;97410.88;5096398;28;20229;-76
2021/05/15 08:01:47;;;;;;;2.40;0.87;;;;;;;17.15;55.52;97409.59;5095908;28;20593;-75
2021/05/15 08:04:13;;;;;;;1.10;0.60;;;;;;;17.50;55.61;97411.19;5095996;28;20266;-76
2021/05/15 08:06:39;;;;;;;1.73;0.90;;;;;;;17.77;54.88;97413.50;5097017;28;20217;-74
2021/05/15 08:09:07;;;;;;;0.67;0.60;;;;;;;17.80;52.58;97407.84;5094402;28;20217;-75
2021/05/15 08:11:34;;;;;;;1.00;0.70;;;;;;;17.84;52.89;97410.00;5094288;28;20211;-74
2021/05/15 08:14:00;;;;;;;0.70;0.70;;;;;;;17.83;52.77;97408.34;5094161;28;20245;-74
2021/05/15 08:16:26;;;;;;;0.80;0.70;;;;;;;17.72;54.29;97416.69;5094012;28;20217;-74
2021/05/15 08:18:52;;;;;;;0.50;0.50;;;;;;;17.59;54.35;97418.19;5094122;28;20206;-75
2021/05/15 08:21:18;;;;;;;1.50;0.90;;;;;;;17.44;54.56;97412.66;5094663;28;20637;-75
2021/05/15 08:23:44;;;;;;;0.90;0.80;;;;;;;17.27;55.30;97410.09;5092276;28;20211;-75
2021/05/15 08:26:12;;;;;;;1.20;0.70;;;;;;;17.11;55.54;97412.75;5093901;28;20203;-75
2021/05/15 08:28:40;;;;;;;1.50;0.60;;;;;;;16.90;55.45;97407.88;5093817;28;20217;-75
2021/05/15 08:31:07;;;;;;;1.80;0.70;;;;;;;16.61;55.62;97407.44;5093530;28;20215;-75
2021/05/15 08:33:33;;;;;;;0.63;0.63;;;;;;;16.45;56.76;97407.34;5093388;28;20736;-75
2021/05/15 08:35:59;;;;;;;0.70;0.60;;;;;;;16.27;57.63;97414.56;5093734;28;20385;-75
2021/05/15 08:38:25;;;;;;;1.53;0.80;;;;;;;16.14;58.18;97408.81;5093343;28;20659;-75
2021/05/15 08:40:51;;;;;;;1.10;0.70;;;;;;;16.04;58.15;97410.75;5093566;28;20215;-75
2021/05/15 08:43:20;;;;;;;0.73;0.67;;;;;;;16.02;57.85;97400.41;5093690;28;20633;-75
2021/05/15 08:45:48;;;;;;;0.93;0.60;;;;;;;16.05;58.26;97398.25;5093577;28;20267;-75
2021/05/15 08:48:15;;;;;;;2.47;0.80;;;;;;;16.21;58.61;97399.19;5092345;28;20305;-75
2021/05/15 08:50:42;;;;;;;1.13;0.80;;;;;;;16.33;57.83;97397.09;5092808;28;20213;-75
2021/05/15 08:53:08;;;;;;;1.33;1.00;;;;;;;16.43;58.15;97393.34;5093304;28;20207;-75
2021/05/15 08:55:35;;;;;;;1.50;0.70;;;;;;;16.54;57.09;97395.72;5093268;28;20255;-75
2021/05/15 08:58:02;;;;;;;0.70;0.70;;;;;;;16.72;56.77;97387.63;5093059;28;20746;-75
2021/05/15 09:00:31;;;;;;;0.73;0.70;;;;;;;16.97;56.45;97392.88;5093203;28;20679;-75
2021/05/15 09:02:59;;;;;;;0.90;0.60;;;;;;;17.27;56.01;97386.91;5093487;28;20302;-75
2021/05/15 09:05:28;;;;;;;1.30;0.63;;;;;;;17.38;54.04;97391.94;5093082;28;20227;-75
2021/05/15 09:07:56;;;;;;;1.27;0.70;;;;;;;17.35;53.89;97392.25;5093251;28;20214;-75
2021/05/15 09:10:25;;;;;;;0.90;0.63;;;;;;;17.56;53.49;97389.13;5092886;28;20207;-75
2021/05/15 09:12:51;;;;;;;0.60;0.60;;;;;;;17.79;53.37;97377.59;5092796;28;20202;-75
2021/05/15 09:15:17;;;;;;;0.60;0.60;;;;;;;17.94;52.93;97383.94;5091405;28;20210;-75
2021/05/15 09:17:45;;;;;;;0.90;0.60;;;;;;;17.94;53.39;97378.59;5093117;28;20236;-76
2021/05/15 09:20:22;;;;;;;0.53;0.53;;;;;;;17.93;53.47;97374.22;5092934;28;20211;-75
2021/05/15 09:22:49;;;;;;;0.60;0.60;;;;;;;17.96;53.70;97376.56;5093008;28;20202;-75
2021/05/15 09:25:15;;;;;;;1.23;0.60;;;;;;;17.92;52.48;97369.88;5092776;28;20206;-74
2021/05/15 09:27:41;;;;;;;1.00;0.63;;;;;;;17.98;53.61;97374.56;5092695;28;20670;-75
2021/05/15 09:30:09;;;;;;;1.77;0.60;;;;;;;18.06;53.26;97374.56;5092936;28;20229;-75
2021/05/15 09:32:35;;;;;;;0.70;0.70;;;;;;;18.16;53.35;97369.84;5092792;28;20221;-75
2021/05/15 09:35:05;;;;;;;0.93;0.70;;;;;;;18.32;53.21;97367.16;5092443;28;20233;-75
2021/05/15 09:37:33;;;;;;;0.70;0.70;;;;;;;18.46;51.68;97363.75;5092580;28;20215;-75
2021/05/15 09:40:11;;;;;;;0.90;0.70;;;;;;;18.70;51.70;97360.13;5092756;28;20207;-75
2021/05/15 09:42:45;;;;;;;1.07;0.77;;;;;;;18.89;52.02;97357.84;5091216;28;20259;-75
2021/05/15 09:45:19;;;;;;;0.70;0.70;;;;;;;19.02;49.73;97347.38;5092559;28;20207;-76
2021/05/15 09:47:53;;;;;;;0.70;0.70;;;;;;;18.96;48.20;97355.31;5092308;28;20206;-75
2021/05/15 09:50:21;;;;;;;1.33;0.73;;;;;;;19.11;49.74;97346.34;5092154;28;20259;-77
2021/05/15 09:52:51;;;;;;;5.27;2.50;;;;;;;19.26;49.19;97341.09;5088885;28;20211;-82
2021/05/15 09:55:18;;;;;;;0.80;0.80;;;;;;;19.38;48.75;97340.47;5092138;28;20303;-79
2021/05/15 09:57:54;;;;;;;1.67;0.87;;;;;;;19.51;48.28;97335.34;5092257;28;20246;-79
2021/05/15 10:00:20;;;;;;;2.00;0.83;;;;;;;19.63;48.21;97327.72;5092130;28;20715;-79
2021/05/15 10:02:53;;;;;;;0.77;0.77;;;;;;;19.51;47.99;97323.78;5092818;28;20563;-79
2021/05/15 10:05:21;;;;;;;0.77;0.77;;;;;;;19.23;48.25;97323.53;5092135;28;20623;-79
2021/05/15 10:07:47;;;;;;;1.40;0.80;;;;;;;19.01;49.32;97316.25;5091339;28;20207;-78
2021/05/15 10:10:25;;;;;;;0.93;0.80;;;;;;;18.83;49.34;97313.03;5093059;28;20219;-85
2021/05/15 10:13:06;;;;;;;1.17;0.70;;;;;;;18.74;48.99;97314.09;5094773;28;20263;-85
2021/05/15 10:15:37;;;;;;;1.13;0.70;;;;;;;18.93;48.56;97308.28;5095780;28;20226;-84
2021/05/15 10:18:06;;;;;;;0.70;0.60;;;;;;;19.01;48.87;97305.56;5094999;28;20211;-83
2021/05/15 10:20:33;;;;;;;0.60;0.60;;;;;;;19.19;49.40;97298.06;5093399;28;20245;-80
2021/05/15 10:23:00;;;;;;;0.60;0.60;;;;;;;19.20;48.28;97294.38;5094313;28;20672;-80
2021/05/15 10:25:29;;;;;;;1.23;0.70;;;;;;;19.14;48.67;97284.34;5096270;28;20314;-80
2021/05/15 10:28:03;;;;;;;0.73;0.60;;;;;;;19.09;48.16;97281.38;5095899;28;20676;-79
2021/05/15 10:30:29;;;;;;;0.67;0.63;;;;;;;19.05;48.29;97285.44;5095764;28;20211;-79
2021/05/15 10:32:57;;;;;;;0.60;0.60;;;;;;;18.95;47.54;97276.00;5096186;28;20207;-79
2021/05/15 10:35:31;;;;;;;0.93;0.60;;;;;;;18.73;47.64;97280.31;5094532;28;20352;-80
2021/05/15 10:38:03;;;;;;;0.50;0.50;;;;;;;18.63;48.51;97269.00;5096167;28;20291;-80
2021/05/15 10:40:30;;;;;;;1.43;0.90;;;;;;;18.40;47.84;97268.13;5095959;28;20217;-79
2021/05/15 10:42:58;;;;;;;0.90;0.70;;;;;;;18.16;49.16;97260.19;5095567;28;20656;-79
2021/05/15 10:45:33;;;;;;;0.87;0.60;;;;;;;18.15;50.73;97253.16;5095561;28;20207;-81
2021/05/15 10:48:12;;;;;;;2.17;0.73;;;;;;;18.21;51.60;97249.78;5095776;28;20206;-82
2021/05/15 10:50:48;;;;;;;1.10;1.00;;;;;;;18.24;49.67;97252.09;5095476;28;20210;-81
2021/05/15 10:53:20;;;;;;;1.23;0.70;;;;;;;18.38;47.17;97246.06;5095711;28;20214;-79
2021/05/15 10:56:01;;;;;;;1.00;0.73;;;;;;;18.68;47.58;97239.03;5095447;28;20210;-79
2021/05/15 10:58:38;;;;;;;0.93;0.70;;;;;;;18.81;45.97;97239.25;5095656;28;20212;-77
2021/05/15 11:01:12;;;;;;;1.97;0.53;;;;;;;18.77;45.38;97230.75;5093828;28;20210;-78
2021/05/15 11:03:38;;;;;;;1.13;0.93;;;;;;;18.64;48.15;97233.19;5095352;28;20699;-77
2021/05/15 11:06:21;;;;;;;0.70;0.70;;;;;;;18.54;50.32;97227.22;5095674;28;20239;-77
2021/05/15 11:08:58;;;;;;;1.30;0.70;;;;;;;18.48;48.81;97222.56;5095541;28;20291;-77
2021/05/15 11:11:45;;;;;;;1.80;0.73;;;;;;;18.47;48.22;97226.25;5095386;28;20213;-78
2021/05/15 11:14:29;;;;;;;1.10;0.73;;;;;;;18.55;47.75;97223.56;5089998;28;20230;-77
2021/05/15 11:17:09;;;;;;;1.60;0.80;;;;;;;18.67;48.86;97221.31;5094914;28;20242;-77
2021/05/15 11:19:35;;;;;;;1.53;0.80;;;;;;;18.63;47.82;97210.13;5096756;28;20213;-78
2021/05/15 11:22:02;;;;;;;1.00;0.80;;;;;;;18.37;46.74;97214.97;5106723;28;20260;-77
2021/05/15 11:24:34;;;;;;;1.20;0.90;;;;;;;18.13;47.65;97217.75;5107496;28;20247;-77
2021/05/15 11:27:09;;;;;;;1.57;0.90;;;;;;;18.06;49.40;97211.44;5095157;28;20221;-77
2021/05/15 11:29:37;;;;;;;1.33;0.80;;;;;;;18.18;48.49;97203.84;5094057;28;20210;-78
2021/05/15 11:32:08;;;;;;;1.47;0.83;;;;;;;18.31;47.79;97215.69;5094755;28;20694;-78
2021/05/15 11:34:34;;;;;;;1.77;0.70;;;;;;;18.13;47.38;97207.06;5094851;28;20257;-78
2021/05/15 11:37:00;;;;;;;1.43;0.80;;;;;;;18.15;47.71;97199.69;5094951;28;20221;-79